sensor_id;sensor_type;location;lat;lon;timestamp;pressure;altitude;pressure_sealevel;temperature;humidity
79004;BME280;68369;51.050;17.018;2023-06-24T00:02:22;100427.61;;;19.43;81.76
79004;BME280;68369;51.050;17.018;2023-06-24T00:05:09;100436.60;;;19.44;81.71
79004;BME280;68369;51.050;17.018;2023-06-24T00:11:02;100445.21;;;19.47;81.63
79004;BME280;68369;51.050;17.018;2023-06-24T00:13:48;100444.98;;;19.48;81.71
79004;BME280;68369;51.050;17.018;2023-06-24T00:16:33;100442.37;;;19.50;81.43
79004;BME280;68369;51.050;17.018;2023-06-24T00:19:20;100447.11;;;19.52;81.38
79004;BME280;68369;51.050;17.018;2023-06-24T00:22:14;100447.76;;;19.51;81.37
79004;BME280;68369;51.050;17.018;2023-06-24T00:25:01;100444.00;;;19.52;81.15
79004;BME280;68369;51.050;17.018;2023-06-24T00:30:43;100447.06;;;19.53;80.98
79004;BME280;68369;51.050;17.018;2023-06-24T00:33:28;100449.60;;;19.50;80.92
79004;BME280;68369;51.050;17.018;2023-06-24T00:46:11;100454.96;;;19.36;80.71
79004;BME280;68369;51.050;17.018;2023-06-24T00:51:51;100469.04;;;19.33;80.73
79004;BME280;68369;51.050;17.018;2023-06-24T01:00:46;100472.43;;;19.24;80.47
79004;BME280;68369;51.050;17.018;2023-06-24T01:03:36;100471.85;;;19.20;80.35
79004;BME280;68369;51.050;17.018;2023-06-24T01:06:22;100472.74;;;19.12;80.42
79004;BME280;68369;51.050;17.018;2023-06-24T01:09:07;100475.19;;;19.10;80.41
79004;BME280;68369;51.050;17.018;2023-06-24T01:11:53;100484.98;;;19.10;80.55
79004;BME280;68369;51.050;17.018;2023-06-24T01:14:38;100491.80;;;19.09;80.45
79004;BME280;68369;51.050;17.018;2023-06-24T01:20:48;100508.36;;;19.04;80.59
79004;BME280;68369;51.050;17.018;2023-06-24T01:24:20;100515.27;;;19.04;80.67
79004;BME280;68369;51.050;17.018;2023-06-24T01:30:14;100528.05;;;19.04;80.46
79004;BME280;68369;51.050;17.018;2023-06-24T01:33:04;100534.46;;;19.01;80.52
79004;BME280;68369;51.050;17.018;2023-06-24T01:39:03;100535.33;;;18.99;80.52
79004;BME280;68369;51.050;17.018;2023-06-24T01:45:07;100546.48;;;18.97;80.08
79004;BME280;68369;51.050;17.018;2023-06-24T01:48:19;100551.91;;;18.88;79.78
79004;BME280;68369;51.050;17.018;2023-06-24T01:54:17;100560.72;;;18.71;79.54
79004;BME280;68369;51.050;17.018;2023-06-24T02:03:49;100573.67;;;18.57;79.11
79004;BME280;68369;51.050;17.018;2023-06-24T02:06:36;100573.80;;;18.49;78.99
79004;BME280;68369;51.050;17.018;2023-06-24T02:09:22;100568.61;;;18.40;78.87
79004;BME280;68369;51.050;17.018;2023-06-24T02:12:09;100573.63;;;18.33;78.84
79004;BME280;68369;51.050;17.018;2023-06-24T02:15:01;100571.14;;;18.22;78.41
79004;BME280;68369;51.050;17.018;2023-06-24T02:20:40;100578.94;;;18.01;78.44
79004;BME280;68369;51.050;17.018;2023-06-24T02:23:29;100585.42;;;17.98;78.67
79004;BME280;68369;51.050;17.018;2023-06-24T02:35:38;100596.28;;;17.73;78.49
79004;BME280;68369;51.050;17.018;2023-06-24T02:38:26;100598.16;;;17.66;78.48
79004;BME280;68369;51.050;17.018;2023-06-24T02:41:13;100599.66;;;17.57;78.55
79004;BME280;68369;51.050;17.018;2023-06-24T02:43:59;100608.48;;;17.50;78.61
79004;BME280;68369;51.050;17.018;2023-06-24T02:56:25;100622.75;;;17.32;78.68
79004;BME280;68369;51.050;17.018;2023-06-24T03:12:44;100650.55;;;17.04;78.65
79004;BME280;68369;51.050;17.018;2023-06-24T03:15:31;100652.37;;;16.98;78.51
79004;BME280;68369;51.050;17.018;2023-06-24T03:18:17;100659.50;;;16.94;78.47
79004;BME280;68369;51.050;17.018;2023-06-24T03:30:44;100686.71;;;16.74;78.70
79004;BME280;68369;51.050;17.018;2023-06-24T03:33:29;100691.75;;;16.73;78.82
79004;BME280;68369;51.050;17.018;2023-06-24T03:36:14;100694.41;;;16.69;78.91
79004;BME280;68369;51.050;17.018;2023-06-24T03:42:11;100705.07;;;16.66;79.18
79004;BME280;68369;51.050;17.018;2023-06-24T03:48:00;100715.34;;;16.57;79.48
79004;BME280;68369;51.050;17.018;2023-06-24T03:54:02;100709.44;;;16.55;79.69
79004;BME280;68369;51.050;17.018;2023-06-24T03:56:50;100709.99;;;16.54;79.52
79004;BME280;68369;51.050;17.018;2023-06-24T03:59:37;100714.21;;;16.55;79.69
79004;BME280;68369;51.050;17.018;2023-06-24T04:02:22;100715.32;;;16.54;79.78
79004;BME280;68369;51.050;17.018;2023-06-24T04:05:09;100720.33;;;16.53;79.96
79004;BME280;68369;51.050;17.018;2023-06-24T04:07:57;100716.67;;;16.55;79.90
79004;BME280;68369;51.050;17.018;2023-06-24T04:10:44;100723.33;;;16.59;79.98
79004;BME280;68369;51.050;17.018;2023-06-24T04:13:36;100714.04;;;16.55;79.92
79004;BME280;68369;51.050;17.018;2023-06-24T04:16:25;100725.86;;;16.61;79.69
79004;BME280;68369;51.050;17.018;2023-06-24T04:19:15;100731.73;;;16.58;79.85
79004;BME280;68369;51.050;17.018;2023-06-24T04:22:04;100728.16;;;16.53;79.52
79004;BME280;68369;51.050;17.018;2023-06-24T04:24:48;100731.10;;;16.51;79.66
79004;BME280;68369;51.050;17.018;2023-06-24T04:27:34;100734.53;;;16.49;79.65
79004;BME280;68369;51.050;17.018;2023-06-24T04:30:20;100735.70;;;16.48;79.54
79004;BME280;68369;51.050;17.018;2023-06-24T04:42:41;100755.80;;;16.40;79.69
79004;BME280;68369;51.050;17.018;2023-06-24T04:51:56;100775.56;;;16.40;79.70
79004;BME280;68369;51.050;17.018;2023-06-24T05:00:48;100791.60;;;16.38;79.78
79004;BME280;68369;51.050;17.018;2023-06-24T05:03:37;100794.16;;;16.37;79.92
79004;BME280;68369;51.050;17.018;2023-06-24T05:06:28;100799.73;;;16.35;79.86
79004;BME280;68369;51.050;17.018;2023-06-24T05:09:18;100803.07;;;16.29;80.29
79004;BME280;68369;51.050;17.018;2023-06-24T05:12:07;100809.89;;;16.27;80.68
79004;BME280;68369;51.050;17.018;2023-06-24T05:17:56;100815.25;;;16.26;80.66
79004;BME280;68369;51.050;17.018;2023-06-24T05:24:19;100813.77;;;16.21;80.41
79004;BME280;68369;51.050;17.018;2023-06-24T05:27:05;100819.59;;;16.25;80.55
79004;BME280;68369;51.050;17.018;2023-06-24T05:29:51;100824.98;;;16.26;80.54
79004;BME280;68369;51.050;17.018;2023-06-24T05:32:36;100824.94;;;16.30;80.54
79004;BME280;68369;51.050;17.018;2023-06-24T05:38:15;100832.29;;;16.34;80.25
79004;BME280;68369;51.050;17.018;2023-06-24T05:41:03;100836.67;;;16.31;80.34
79004;BME280;68369;51.050;17.018;2023-06-24T05:44:01;100839.84;;;16.31;80.24
79004;BME280;68369;51.050;17.018;2023-06-24T05:52:40;100837.32;;;16.39;80.16
79004;BME280;68369;51.050;17.018;2023-06-24T05:58:28;100833.71;;;16.43;80.21
79004;BME280;68369;51.050;17.018;2023-06-24T06:01:17;100834.45;;;16.45;80.19
79004;BME280;68369;51.050;17.018;2023-06-24T06:07:16;100839.94;;;16.54;80.08
79004;BME280;68369;51.050;17.018;2023-06-24T06:10:01;100840.86;;;16.60;79.96
79004;BME280;68369;51.050;17.018;2023-06-24T06:12:47;100847.31;;;16.64;80.03
79004;BME280;68369;51.050;17.018;2023-06-24T06:15:32;100847.06;;;16.65;80.06
79004;BME280;68369;51.050;17.018;2023-06-24T06:24:49;100854.31;;;16.74;79.96
79004;BME280;68369;51.050;17.018;2023-06-24T06:40:10;100854.61;;;16.93;79.39
79004;BME280;68369;51.050;17.018;2023-06-24T06:42:55;100851.20;;;16.98;79.55
79004;BME280;68369;51.050;17.018;2023-06-24T06:45:40;100859.05;;;17.02;79.58
79004;BME280;68369;51.050;17.018;2023-06-24T06:48:26;100859.46;;;17.07;79.65
79004;BME280;68369;51.050;17.018;2023-06-24T06:51:12;100862.13;;;17.07;79.42
79004;BME280;68369;51.050;17.018;2023-06-24T06:53:57;100866.77;;;17.06;79.49
79004;BME280;68369;51.050;17.018;2023-06-24T06:56:42;100864.23;;;17.07;79.29
79004;BME280;68369;51.050;17.018;2023-06-24T07:02:47;100862.20;;;17.17;79.49
79004;BME280;68369;51.050;17.018;2023-06-24T07:05:32;100868.05;;;17.23;79.51
79004;BME280;68369;51.050;17.018;2023-06-24T07:08:19;100869.80;;;17.26;79.40
79004;BME280;68369;51.050;17.018;2023-06-24T07:13:53;100868.83;;;17.33;79.58
79004;BME280;68369;51.050;17.018;2023-06-24T07:22:32;100865.62;;;17.45;79.06
79004;BME280;68369;51.050;17.018;2023-06-24T07:25:17;100865.16;;;17.47;79.28
79004;BME280;68369;51.050;17.018;2023-06-24T07:28:03;100868.75;;;17.54;79.57
79004;BME280;68369;51.050;17.018;2023-06-24T07:57:30;100867.66;;;18.11;79.30
79004;BME280;68369;51.050;17.018;2023-06-24T08:00:15;100869.92;;;18.17;79.13
79004;BME280;68369;51.050;17.018;2023-06-24T08:21:23;100879.83;;;18.77;78.20
79004;BME280;68369;51.050;17.018;2023-06-24T09:05:53;100909.67;;;19.07;76.33
79004;BME280;68369;51.050;17.018;2023-06-24T09:08:40;100907.00;;;19.05;76.54
79004;BME280;68369;51.050;17.018;2023-06-24T09:11:27;100904.94;;;19.02;76.22
79004;BME280;68369;51.050;17.018;2023-06-24T09:20:20;100915.64;;;18.96;76.22
79004;BME280;68369;51.050;17.018;2023-06-24T09:25:55;100916.14;;;18.91;76.49
79004;BME280;68369;51.050;17.018;2023-06-24T09:28:40;100915.61;;;18.88;76.39
79004;BME280;68369;51.050;17.018;2023-06-24T09:50:36;100900.61;;;19.23;76.85
79004;BME280;68369;51.050;17.018;2023-06-24T10:06:21;100904.17;;;19.74;75.67
79004;BME280;68369;51.050;17.018;2023-06-24T10:12:00;100902.34;;;19.94;73.88
79004;BME280;68369;51.050;17.018;2023-06-24T10:14:47;100896.80;;;19.98;73.19
79004;BME280;68369;51.050;17.018;2023-06-24T10:17:32;100900.66;;;19.93;73.18
79004;BME280;68369;51.050;17.018;2023-06-24T10:20:24;100903.71;;;19.90;73.66
79004;BME280;68369;51.050;17.018;2023-06-24T10:23:10;100895.57;;;19.85;72.76
79004;BME280;68369;51.050;17.018;2023-06-24T10:25:55;100900.73;;;19.90;73.95
79004;BME280;68369;51.050;17.018;2023-06-24T10:31:52;100894.15;;;20.19;74.07
79004;BME280;68369;51.050;17.018;2023-06-24T10:37:30;100899.05;;;20.50;72.99
79004;BME280;68369;51.050;17.018;2023-06-24T10:40:37;100895.68;;;20.71;72.50
79004;BME280;68369;51.050;17.018;2023-06-24T10:49:02;100894.75;;;21.20;71.37
79004;BME280;68369;51.050;17.018;2023-06-24T10:58:07;100895.80;;;21.37;69.49
79004;BME280;68369;51.050;17.018;2023-06-24T11:01:06;100895.42;;;21.37;70.09
79004;BME280;68369;51.050;17.018;2023-06-24T11:03:52;100890.48;;;21.41;70.21
79004;BME280;68369;51.050;17.018;2023-06-24T11:06:37;100886.41;;;21.50;70.12
79004;BME280;68369;51.050;17.018;2023-06-24T11:09:22;100890.01;;;21.61;70.28
79004;BME280;68369;51.050;17.018;2023-06-24T11:12:09;100883.89;;;21.68;70.11
79004;BME280;68369;51.050;17.018;2023-06-24T11:15:07;100881.92;;;21.77;69.58
79004;BME280;68369;51.050;17.018;2023-06-24T11:21:09;100876.39;;;21.97;68.94
79004;BME280;68369;51.050;17.018;2023-06-24T11:27:04;100867.30;;;22.24;68.09
79004;BME280;68369;51.050;17.018;2023-06-24T11:29:51;100865.61;;;22.33;66.84
79004;BME280;68369;51.050;17.018;2023-06-24T11:32:41;100857.73;;;22.48;67.19
79004;BME280;68369;51.050;17.018;2023-06-24T11:35:26;100853.17;;;22.73;66.99
79004;BME280;68369;51.050;17.018;2023-06-24T11:38:12;100856.39;;;23.06;65.42
79004;BME280;68369;51.050;17.018;2023-06-24T11:40:57;100856.17;;;23.38;64.40
79004;BME280;68369;51.050;17.018;2023-06-24T11:43:47;100850.41;;;23.62;63.30
79004;BME280;68369;51.050;17.018;2023-06-24T11:46:33;100849.35;;;23.89;64.20
79004;BME280;68369;51.050;17.018;2023-06-24T11:49:20;100845.54;;;24.19;64.69
79004;BME280;68369;51.050;17.018;2023-06-24T11:52:05;100843.20;;;24.51;62.90
79004;BME280;68369;51.050;17.018;2023-06-24T11:54:51;100836.50;;;24.75;62.20
79004;BME280;68369;51.050;17.018;2023-06-24T12:00:52;100827.62;;;25.18;60.16
79004;BME280;68369;51.050;17.018;2023-06-24T12:06:36;100829.52;;;25.61;59.18
79004;BME280;68369;51.050;17.018;2023-06-24T12:09:21;100826.67;;;25.64;57.61
79004;BME280;68369;51.050;17.018;2023-06-24T12:12:08;100821.31;;;25.64;56.27
79004;BME280;68369;51.050;17.018;2023-06-24T12:14:53;100816.05;;;25.79;56.93
79004;BME280;68369;51.050;17.018;2023-06-24T12:17:39;100814.83;;;25.94;57.11
79004;BME280;68369;51.050;17.018;2023-06-24T12:20:25;100815.21;;;25.90;57.54
79004;BME280;68369;51.050;17.018;2023-06-24T12:26:22;100804.10;;;25.84;58.03
79004;BME280;68369;51.050;17.018;2023-06-24T12:29:07;100804.73;;;25.98;57.87
79004;BME280;68369;51.050;17.018;2023-06-24T12:31:53;100797.45;;;26.15;56.52
79004;BME280;68369;51.050;17.018;2023-06-24T12:37:18;100794.48;;;26.53;54.75
79004;BME280;68369;51.050;17.018;2023-06-24T12:40:04;100790.09;;;26.72;55.74
79004;BME280;68369;51.050;17.018;2023-06-24T12:59:04;100774.84;;;26.96;50.28
79004;BME280;68369;51.050;17.018;2023-06-24T13:11:08;100769.17;;;27.16;51.95
79004;BME280;68369;51.050;17.018;2023-06-24T13:13:54;100769.50;;;27.18;51.57
79004;BME280;68369;51.050;17.018;2023-06-24T13:16:39;100764.02;;;27.26;50.00
79004;BME280;68369;51.050;17.018;2023-06-24T13:19:24;100762.70;;;27.26;50.45
79004;BME280;68369;51.050;17.018;2023-06-24T13:22:10;100759.91;;;27.29;51.19
79004;BME280;68369;51.050;17.018;2023-06-24T13:24:55;100758.07;;;27.32;51.09
79004;BME280;68369;51.050;17.018;2023-06-24T13:27:40;100755.02;;;27.29;49.92
79004;BME280;68369;51.050;17.018;2023-06-24T13:30:25;100749.65;;;27.41;50.03
79004;BME280;68369;51.050;17.018;2023-06-24T13:33:10;100749.13;;;27.50;47.32
79004;BME280;68369;51.050;17.018;2023-06-24T13:35:56;100751.19;;;27.56;49.10
79004;BME280;68369;51.050;17.018;2023-06-24T13:38:41;100746.63;;;27.70;49.49
79004;BME280;68369;51.050;17.018;2023-06-24T13:41:26;100749.22;;;27.87;47.19
79004;BME280;68369;51.050;17.018;2023-06-24T13:44:14;100742.55;;;28.00;47.11
79004;BME280;68369;51.050;17.018;2023-06-24T13:46:59;100745.29;;;28.16;47.76
79004;BME280;68369;51.050;17.018;2023-06-24T13:59:09;100739.48;;;28.51;44.94
79004;BME280;68369;51.050;17.018;2023-06-24T14:05:14;100737.67;;;28.51;45.73
79004;BME280;68369;51.050;17.018;2023-06-24T14:07:59;100739.91;;;28.60;44.55
79004;BME280;68369;51.050;17.018;2023-06-24T14:10:44;100730.98;;;28.67;43.28
79004;BME280;68369;51.050;17.018;2023-06-24T14:13:29;100729.99;;;28.72;42.88
79004;BME280;68369;51.050;17.018;2023-06-24T14:16:16;100730.89;;;28.76;43.48
79004;BME280;68369;51.050;17.018;2023-06-24T14:22:31;100724.66;;;28.86;42.50
79004;BME280;68369;51.050;17.018;2023-06-24T14:25:16;100727.22;;;28.89;42.40
79004;BME280;68369;51.050;17.018;2023-06-24T14:28:02;100725.38;;;28.93;42.06
79004;BME280;68369;51.050;17.018;2023-06-24T14:31:17;100719.52;;;28.97;41.88
79004;BME280;68369;51.050;17.018;2023-06-24T14:34:04;100719.55;;;29.01;40.92
79004;BME280;68369;51.050;17.018;2023-06-24T14:36:49;100716.02;;;29.04;40.65
79004;BME280;68369;51.050;17.018;2023-06-24T14:39:34;100714.46;;;29.08;40.69
79004;BME280;68369;51.050;17.018;2023-06-24T14:42:20;100714.09;;;29.07;40.84
79004;BME280;68369;51.050;17.018;2023-06-24T14:45:06;100711.48;;;29.10;40.59
79004;BME280;68369;51.050;17.018;2023-06-24T14:47:52;100704.98;;;29.17;40.07
79004;BME280;68369;51.050;17.018;2023-06-24T14:50:38;100701.83;;;29.19;40.48
79004;BME280;68369;51.050;17.018;2023-06-24T14:56:15;100697.73;;;29.28;41.60
79004;BME280;68369;51.050;17.018;2023-06-24T14:59:05;100706.85;;;29.37;39.85
79004;BME280;68369;51.050;17.018;2023-06-24T15:05:26;100707.04;;;28.99;41.09
79004;BME280;68369;51.050;17.018;2023-06-24T15:11:29;100703.69;;;28.60;41.52
79004;BME280;68369;51.050;17.018;2023-06-24T15:14:15;100709.12;;;28.32;40.77
79004;BME280;68369;51.050;17.018;2023-06-24T15:17:00;100708.16;;;28.21;41.83
79004;BME280;68369;51.050;17.018;2023-06-24T15:19:45;100707.98;;;28.30;42.02
79004;BME280;68369;51.050;17.018;2023-06-24T15:22:30;100703.04;;;28.56;41.97
79004;BME280;68369;51.050;17.018;2023-06-24T15:28:08;100704.77;;;29.75;39.47
79004;BME280;68369;51.050;17.018;2023-06-24T15:30:53;100702.33;;;31.68;37.08
79004;BME280;68369;51.050;17.018;2023-06-24T15:33:39;100705.52;;;33.13;35.85
79004;BME280;68369;51.050;17.018;2023-06-24T15:39:19;100703.38;;;37.44;31.42
79004;BME280;68369;51.050;17.018;2023-06-24T15:42:09;100702.23;;;38.05;29.82
79004;BME280;68369;51.050;17.018;2023-06-24T15:44:56;100694.92;;;37.04;29.93
79004;BME280;68369;51.050;17.018;2023-06-24T15:50:36;100696.05;;;34.02;31.81
79004;BME280;68369;51.050;17.018;2023-06-24T15:56:33;100694.48;;;31.70;34.51
79004;BME280;68369;51.050;17.018;2023-06-24T15:59:18;100695.85;;;30.75;35.63
79004;BME280;68369;51.050;17.018;2023-06-24T16:02:03;100690.23;;;29.92;36.85
79004;BME280;68369;51.050;17.018;2023-06-24T16:04:48;100693.63;;;29.21;38.81
79004;BME280;68369;51.050;17.018;2023-06-24T16:07:34;100695.52;;;28.61;40.14
79004;BME280;68369;51.050;17.018;2023-06-24T16:10:19;100697.16;;;28.05;40.36
79004;BME280;68369;51.050;17.018;2023-06-24T16:13:05;100697.83;;;27.63;42.37
79004;BME280;68369;51.050;17.018;2023-06-24T16:18:48;100692.63;;;27.86;42.22
79004;BME280;68369;51.050;17.018;2023-06-24T16:24:28;100694.09;;;27.14;43.34
79004;BME280;68369;51.050;17.018;2023-06-24T16:27:13;100688.90;;;26.76;43.11
79004;BME280;68369;51.050;17.018;2023-06-24T16:36:05;100692.11;;;25.69;45.80
79004;BME280;68369;51.050;17.018;2023-06-24T16:38:51;100691.15;;;25.44;46.55
79004;BME280;68369;51.050;17.018;2023-06-24T16:41:36;100690.54;;;25.21;47.94
79004;BME280;68369;51.050;17.018;2023-06-24T16:44:21;100688.38;;;25.01;48.09
79004;BME280;68369;51.050;17.018;2023-06-24T16:47:06;100689.73;;;24.85;48.90
79004;BME280;68369;51.050;17.018;2023-06-24T16:49:52;100692.11;;;24.71;49.40
79004;BME280;68369;51.050;17.018;2023-06-24T16:52:39;100692.17;;;24.63;49.64
79004;BME280;68369;51.050;17.018;2023-06-24T16:55:24;100691.65;;;24.58;50.18
79004;BME280;68369;51.050;17.018;2023-06-24T17:01:27;100686.88;;;24.49;51.15
79004;BME280;68369;51.050;17.018;2023-06-24T17:04:12;100685.44;;;24.46;51.52
79004;BME280;68369;51.050;17.018;2023-06-24T17:06:58;100687.52;;;24.35;51.37
79004;BME280;68369;51.050;17.018;2023-06-24T17:09:43;100685.45;;;24.25;52.07
79004;BME280;68369;51.050;17.018;2023-06-24T17:12:28;100685.65;;;24.12;51.26
79004;BME280;68369;51.050;17.018;2023-06-24T17:15:13;100684.71;;;24.00;51.48
79004;BME280;68369;51.050;17.018;2023-06-24T17:17:58;100683.67;;;23.88;51.67
79004;BME280;68369;51.050;17.018;2023-06-24T17:20:44;100681.04;;;23.76;51.46
79004;BME280;68369;51.050;17.018;2023-06-24T17:23:30;100677.19;;;23.63;51.94
79004;BME280;68369;51.050;17.018;2023-06-24T17:26:15;100681.72;;;23.52;52.08
79004;BME280;68369;51.050;17.018;2023-06-24T17:29:00;100675.23;;;23.43;52.71
79004;BME280;68369;51.050;17.018;2023-06-24T17:31:45;100672.13;;;23.34;53.24
79004;BME280;68369;51.050;17.018;2023-06-24T17:34:31;100671.14;;;23.27;53.24
79004;BME280;68369;51.050;17.018;2023-06-24T17:37:17;100671.61;;;23.20;53.56
79004;BME280;68369;51.050;17.018;2023-06-24T17:40:03;100669.23;;;23.12;53.99
79004;BME280;68369;51.050;17.018;2023-06-24T17:42:48;100670.30;;;23.04;54.25
79004;BME280;68369;51.050;17.018;2023-06-24T17:45:33;100671.20;;;22.96;53.92
79004;BME280;68369;51.050;17.018;2023-06-24T17:48:20;100669.19;;;22.88;54.68
79004;BME280;68369;51.050;17.018;2023-06-24T17:51:05;100666.02;;;22.80;55.38
79004;BME280;68369;51.050;17.018;2023-06-24T17:53:51;100667.94;;;22.72;55.04
79004;BME280;68369;51.050;17.018;2023-06-24T17:56:36;100665.36;;;22.67;55.29
79004;BME280;68369;51.050;17.018;2023-06-24T17:59:22;100667.99;;;22.61;54.93
79004;BME280;68369;51.050;17.018;2023-06-24T18:02:07;100668.92;;;22.57;55.43
79004;BME280;68369;51.050;17.018;2023-06-24T18:10:38;100672.07;;;22.53;56.96
79004;BME280;68369;51.050;17.018;2023-06-24T18:16:18;100668.27;;;22.56;56.37
79004;BME280;68369;51.050;17.018;2023-06-24T18:19:05;100663.30;;;22.54;56.37
79004;BME280;68369;51.050;17.018;2023-06-24T18:21:54;100668.52;;;22.53;56.31
79004;BME280;68369;51.050;17.018;2023-06-24T18:24:39;100667.63;;;22.49;55.00
79004;BME280;68369;51.050;17.018;2023-06-24T18:27:24;100668.33;;;22.45;55.66
79004;BME280;68369;51.050;17.018;2023-06-24T18:30:10;100672.09;;;22.41;55.18
79004;BME280;68369;51.050;17.018;2023-06-24T18:35:40;100675.55;;;22.32;56.23
79004;BME280;68369;51.050;17.018;2023-06-24T18:38:25;100674.29;;;22.26;56.46
79004;BME280;68369;51.050;17.018;2023-06-24T18:41:11;100674.78;;;22.20;56.69
79004;BME280;68369;51.050;17.018;2023-06-24T18:46:51;100678.15;;;22.05;57.22
79004;BME280;68369;51.050;17.018;2023-06-24T18:49:37;100682.52;;;21.98;57.10
79004;BME280;68369;51.050;17.018;2023-06-24T18:52:22;100683.93;;;21.91;57.74
79004;BME280;68369;51.050;17.018;2023-06-24T18:55:17;100689.02;;;21.84;57.28
79004;BME280;68369;51.050;17.018;2023-06-24T18:58:02;100686.77;;;21.77;58.10
79004;BME280;68369;51.050;17.018;2023-06-24T19:07:21;100695.22;;;21.61;58.73
79004;BME280;68369;51.050;17.018;2023-06-24T19:12:56;100697.52;;;21.57;59.40
79004;BME280;68369;51.050;17.018;2023-06-24T19:18:35;100704.80;;;21.48;59.57
79004;BME280;68369;51.050;17.018;2023-06-24T19:24:38;100704.30;;;21.37;59.85
79004;BME280;68369;51.050;17.018;2023-06-24T19:27:23;100705.45;;;21.32;60.30
79004;BME280;68369;51.050;17.018;2023-06-24T19:30:09;100707.31;;;21.26;60.50
79004;BME280;68369;51.050;17.018;2023-06-24T19:32:54;100709.86;;;21.21;60.87
79004;BME280;68369;51.050;17.018;2023-06-24T19:35:39;100706.98;;;21.15;61.11
79004;BME280;68369;51.050;17.018;2023-06-24T19:41:47;100703.63;;;21.03;61.21
79004;BME280;68369;51.050;17.018;2023-06-24T19:44:33;100704.34;;;21.01;61.25
79004;BME280;68369;51.050;17.018;2023-06-24T19:47:18;100704.20;;;20.98;61.18
79004;BME280;68369;51.050;17.018;2023-06-24T19:50:04;100705.00;;;20.95;61.45
79004;BME280;68369;51.050;17.018;2023-06-24T19:58:54;100712.58;;;20.84;61.49
79004;BME280;68369;51.050;17.018;2023-06-24T20:01:40;100711.34;;;20.80;61.91
79004;BME280;68369;51.050;17.018;2023-06-24T20:04:25;100713.58;;;20.74;61.96
79004;BME280;68369;51.050;17.018;2023-06-24T20:13:17;100715.33;;;20.63;61.81
79004;BME280;68369;51.050;17.018;2023-06-24T20:16:03;100712.03;;;20.62;61.93
79004;BME280;68369;51.050;17.018;2023-06-24T20:18:48;100713.25;;;20.60;61.76
79004;BME280;68369;51.050;17.018;2023-06-24T20:21:33;100710.63;;;20.57;61.84
79004;BME280;68369;51.050;17.018;2023-06-24T20:24:19;100717.42;;;20.54;62.17
79004;BME280;68369;51.050;17.018;2023-06-24T20:27:08;100712.98;;;20.50;62.17
79004;BME280;68369;51.050;17.018;2023-06-24T20:29:53;100709.39;;;20.43;62.34
79004;BME280;68369;51.050;17.018;2023-06-24T20:36:04;100712.75;;;20.29;61.87
79004;BME280;68369;51.050;17.018;2023-06-24T20:42:13;100715.42;;;20.08;62.24
79004;BME280;68369;51.050;17.018;2023-06-24T20:48:43;100715.23;;;19.89;62.42
79004;BME280;68369;51.050;17.018;2023-06-24T20:51:31;100711.70;;;19.84;62.67
79004;BME280;68369;51.050;17.018;2023-06-24T20:54:16;100715.71;;;19.81;62.74
79004;BME280;68369;51.050;17.018;2023-06-24T20:57:02;100713.81;;;19.75;63.11
79004;BME280;68369;51.050;17.018;2023-06-24T20:59:47;100714.71;;;19.70;63.18
79004;BME280;68369;51.050;17.018;2023-06-24T21:19:02;100706.42;;;19.23;64.23
79004;BME280;68369;51.050;17.018;2023-06-24T21:21:47;100708.37;;;19.21;64.28
79004;BME280;68369;51.050;17.018;2023-06-24T21:24:33;100709.08;;;19.16;64.44
79004;BME280;68369;51.050;17.018;2023-06-24T21:27:18;100708.44;;;19.12;64.61
79004;BME280;68369;51.050;17.018;2023-06-24T21:32:56;100706.06;;;19.04;64.79
79004;BME280;68369;51.050;17.018;2023-06-24T21:38:49;100710.92;;;18.89;65.01
79004;BME280;68369;51.050;17.018;2023-06-24T21:54:42;100713.30;;;18.68;65.82
79004;BME280;68369;51.050;17.018;2023-06-24T21:57:28;100714.15;;;18.63;65.86
79004;BME280;68369;51.050;17.018;2023-06-24T22:00:13;100719.09;;;18.59;66.09
79004;BME280;68369;51.050;17.018;2023-06-24T22:06:35;100724.39;;;18.46;66.30
79004;BME280;68369;51.050;17.018;2023-06-24T22:22:30;100721.87;;;18.34;66.64
79004;BME280;68369;51.050;17.018;2023-06-24T22:25:26;100724.44;;;18.30;66.73
79004;BME280;68369;51.050;17.018;2023-06-24T22:31:13;100723.50;;;18.20;66.96
79004;BME280;68369;51.050;17.018;2023-06-24T22:44:09;100725.69;;;18.06;67.44
79004;BME280;68369;51.050;17.018;2023-06-24T22:49:54;100728.73;;;17.95;67.51
79004;BME280;68369;51.050;17.018;2023-06-24T22:52:42;100726.15;;;17.89;67.70
79004;BME280;68369;51.050;17.018;2023-06-24T22:55:29;100730.19;;;17.87;67.82
79004;BME280;68369;51.050;17.018;2023-06-24T22:58:19;100727.52;;;17.84;67.82
79004;BME280;68369;51.050;17.018;2023-06-24T23:01:06;100728.59;;;17.81;67.85
79004;BME280;68369;51.050;17.018;2023-06-24T23:04:12;100725.05;;;17.78;67.88
79004;BME280;68369;51.050;17.018;2023-06-24T23:07:00;100721.63;;;17.71;68.07
79004;BME280;68369;51.050;17.018;2023-06-24T23:12:37;100723.70;;;17.63;68.19
79004;BME280;68369;51.050;17.018;2023-06-24T23:15:22;100722.67;;;17.60;68.34
79004;BME280;68369;51.050;17.018;2023-06-24T23:24:23;100727.23;;;17.53;68.60
79004;BME280;68369;51.050;17.018;2023-06-24T23:27:09;100720.38;;;17.46;68.62
79004;BME280;68369;51.050;17.018;2023-06-24T23:29:59;100725.00;;;17.46;68.75
79004;BME280;68369;51.050;17.018;2023-06-24T23:32:45;100724.70;;;17.43;68.79
79004;BME280;68369;51.050;17.018;2023-06-24T23:35:31;100724.45;;;17.41;68.88
79004;BME280;68369;51.050;17.018;2023-06-24T23:38:17;100721.56;;;17.39;68.94